createdAt,value
2023-02-13T00:06:04.371Z,8.22
2023-02-13T00:16:06.928Z,7.60
2023-02-13T00:26:11.615Z,7.18
2023-02-13T00:36:21.250Z,7.89
2023-02-13T00:46:23.678Z,7.77
2023-02-13T00:56:26.266Z,7.95
2023-02-13T01:06:28.506Z,8.07
2023-02-13T01:16:30.856Z,7.74
2023-02-13T01:26:34.307Z,7.47
2023-02-13T01:36:36.458Z,7.77
2023-02-13T01:46:42.836Z,7.78
2023-02-13T01:56:54.467Z,7.76
2023-02-13T02:07:03.847Z,7.04
2023-02-13T02:17:09.734Z,7.14
2023-02-13T02:27:30.087Z,7.65
2023-02-13T02:37:54.709Z,7.04
2023-02-13T02:48:24.724Z,6.61
2023-02-13T02:58:59.663Z,6.73
2023-02-13T03:09:25.217Z,6.89
2023-02-13T03:20:20.315Z,6.70
2023-02-13T03:30:45.403Z,6.35
2023-02-13T03:41:18.601Z,6.57
2023-02-13T03:51:27.753Z,6.41
2023-02-13T04:01:32.564Z,5.87
2023-02-13T04:11:39.230Z,6.94
2023-02-13T04:21:42.610Z,7.04
2023-02-13T04:31:44.879Z,6.48
2023-02-13T04:41:47.070Z,6.87
2023-02-13T04:51:49.439Z,7.14
2023-02-13T05:01:51.718Z,6.33
2023-02-13T05:11:54.893Z,6.93
2023-02-13T05:22:16.912Z,6.73
2023-02-13T05:32:19.348Z,6.69
2023-02-13T05:42:22.541Z,7.37
2023-02-13T05:52:24.774Z,6.99
2023-02-13T06:02:27.153Z,7.18
2023-02-13T06:12:29.319Z,6.70
2023-02-13T06:22:31.624Z,7.26
2023-02-13T06:32:33.960Z,6.99
2023-02-13T06:42:36.228Z,6.42
2023-02-13T06:52:38.335Z,6.20
2023-02-13T07:02:41.336Z,5.94
2023-02-13T07:12:44.611Z,5.82
2023-02-13T07:22:47.811Z,5.99
2023-02-13T07:32:51.222Z,5.83
2023-02-13T07:42:53.607Z,5.98
2023-02-13T07:52:59.981Z,5.91
2023-02-13T08:03:02.474Z,6.04
2023-02-13T08:13:05.334Z,6.54
2023-02-13T08:23:09.975Z,6.56
2023-02-13T08:33:12.343Z,6.66
2023-02-13T08:43:14.695Z,7.03
2023-02-13T08:53:16.792Z,7.46
2023-02-13T09:03:19.016Z,7.31
2023-02-13T09:13:21.322Z,8.22
2023-02-13T09:23:23.657Z,7.38
2023-02-13T09:33:26.177Z,7.26
2023-02-13T09:43:35.266Z,7.61
2023-02-13T09:53:38.401Z,8.63
2023-02-13T10:03:48.346Z,7.70
2023-02-13T10:13:52.997Z,8.20
2023-02-13T10:23:59.606Z,8.87
2023-02-13T10:34:04.000Z,9.00
2023-02-13T10:44:21.519Z,8.72
2023-02-13T10:54:35.119Z,8.85
2023-02-13T11:04:37.446Z,8.90
2023-02-13T11:14:54.006Z,9.25
2023-02-13T11:24:59.758Z,9.27
2023-02-13T11:35:32.287Z,9.49
2023-02-13T11:45:34.547Z,9.39
2023-02-13T11:55:39.087Z,10.36
2023-02-13T12:05:41.178Z,10.37
2023-02-13T12:15:43.580Z,10.56
2023-02-13T12:25:59.170Z,11.06
2023-02-13T12:36:19.498Z,10.68
2023-02-13T12:46:39.735Z,11.08
2023-02-13T12:56:51.382Z,10.73
2023-02-13T13:07:21.619Z,10.59
2023-02-13T13:17:29.720Z,11.12
2023-02-13T13:27:44.498Z,10.87
2023-02-13T13:37:49.682Z,11.15
2023-02-13T13:48:06.999Z,11.57
2023-02-13T13:58:21.364Z,11.28
2023-02-13T14:08:42.169Z,11.06
2023-02-13T14:18:46.834Z,10.99
2023-02-13T14:28:48.826Z,11.28
2023-02-13T14:39:08.872Z,11.10
2023-02-13T14:49:16.602Z,11.26
2023-02-13T14:59:27.789Z,11.38
2023-02-13T15:09:34.655Z,10.66
2023-02-13T15:19:43.063Z,11.23
2023-02-13T15:29:56.608Z,10.83
2023-02-13T15:40:26.607Z,10.36
2023-02-13T15:50:36.053Z,10.34
2023-02-13T16:00:41.346Z,10.10
2023-02-13T16:10:43.566Z,9.82
2023-02-13T16:20:45.849Z,9.94
2023-02-13T16:30:59.260Z,9.78
2023-02-13T16:41:19.972Z,9.25
2023-02-13T16:51:31.687Z,8.81
2023-02-13T17:01:38.368Z,9.00
2023-02-13T17:11:40.609Z,9.13
2023-02-13T17:21:43.962Z,8.90
2023-02-13T17:31:46.392Z,8.72
2023-02-13T17:41:50.836Z,8.30
2023-02-13T17:51:54.229Z,8.19
2023-02-13T18:01:57.723Z,8.18
2023-02-13T18:12:05.326Z,7.64
2023-02-13T18:22:13.988Z,7.69
2023-02-13T18:32:19.453Z,7.59
2023-02-13T18:42:21.741Z,7.22
2023-02-13T18:52:23.998Z,6.63
2023-02-13T19:02:26.252Z,7.07
2023-02-13T19:12:28.373Z,6.83
2023-02-13T19:22:32.635Z,6.65
2023-02-13T19:32:35.996Z,6.76
2023-02-13T19:42:40.050Z,6.60
2023-02-13T19:52:43.075Z,6.51
2023-02-13T20:02:45.397Z,6.23
2023-02-13T20:12:53.831Z,5.95
2023-02-13T20:22:55.909Z,5.56
2023-02-13T20:32:59.674Z,5.26
2023-02-13T20:43:01.992Z,5.42
2023-02-13T20:53:05.057Z,5.17
2023-02-13T21:03:07.170Z,5.04
2023-02-13T21:13:10.509Z,4.92
2023-02-13T21:23:12.614Z,4.68
2023-02-13T21:33:14.724Z,4.19
2023-02-13T21:43:17.137Z,4.47
